createdAt,value
2019-03-26T00:01:06.461Z,0.00
2019-03-26T00:02:06.447Z,0.00
2019-03-26T00:03:06.439Z,0.00
2019-03-26T00:04:06.502Z,0.00
2019-03-26T00:05:06.426Z,0.00
2019-03-26T00:06:06.421Z,0.00
2019-03-26T00:07:06.417Z,0.00
2019-03-26T00:08:06.406Z,0.00
2019-03-26T00:09:06.404Z,0.00
2019-03-26T00:10:06.394Z,0.00
2019-03-26T00:11:06.389Z,0.00
2019-03-26T00:12:06.381Z,0.00
2019-03-26T00:13:06.376Z,0.00
2019-03-26T00:14:06.370Z,0.00
2019-03-26T00:15:06.361Z,0.00
2019-03-26T00:16:06.355Z,0.00
2019-03-26T00:17:06.349Z,0.00
2019-03-26T00:18:06.345Z,0.00
2019-03-26T00:19:06.361Z,0.00
2019-03-26T00:20:06.353Z,0.00
2019-03-26T00:21:06.347Z,0.00
2019-03-26T00:22:06.338Z,0.00
2019-03-26T00:23:06.335Z,0.00
2019-03-26T00:24:06.328Z,0.00
2019-03-26T00:25:06.318Z,0.00
2019-03-26T00:26:06.314Z,0.00
2019-03-26T00:27:07.825Z,0.00
2019-03-26T00:28:06.300Z,0.00
2019-03-26T00:29:06.295Z,0.00
2019-03-26T00:30:06.288Z,0.00
2019-03-26T00:31:06.282Z,0.00
2019-03-26T00:32:06.296Z,0.00
2019-03-26T00:33:06.292Z,0.00
2019-03-26T00:34:18.373Z,0.00
2019-03-26T00:35:34.004Z,0.00
2019-03-26T00:36:33.999Z,0.00
2019-03-26T00:37:33.993Z,0.00
2019-03-26T00:38:34.008Z,0.00
2019-03-26T00:39:33.986Z,0.00
2019-03-26T00:40:33.983Z,0.00
2019-03-26T00:41:33.973Z,0.00
2019-03-26T00:42:33.967Z,0.00
2019-03-26T00:43:33.961Z,0.00
2019-03-26T00:44:33.956Z,0.00
2019-03-26T00:45:33.949Z,0.00
2019-03-26T00:46:33.942Z,0.00
2019-03-26T00:47:33.937Z,0.00
2019-03-26T00:48:33.930Z,0.00
2019-03-26T00:49:33.925Z,0.00
2019-03-26T00:50:33.918Z,0.00
2019-03-26T00:51:33.912Z,0.00
2019-03-26T00:52:33.909Z,0.00
2019-03-26T00:53:33.894Z,0.00
2019-03-26T00:54:33.889Z,0.00
2019-03-26T00:55:33.886Z,0.00
2019-03-26T00:56:33.876Z,0.00
2019-03-26T00:57:33.870Z,0.00
2019-03-26T00:58:33.966Z,0.00
2019-03-26T00:59:33.880Z,0.00
2019-03-26T01:00:33.873Z,0.00
2019-03-26T01:01:33.865Z,0.00
2019-03-26T01:02:33.859Z,0.00
2019-03-26T01:03:33.855Z,0.00
2019-03-26T01:04:33.855Z,0.00
2019-03-26T01:05:33.846Z,0.00
2019-03-26T01:06:33.836Z,0.00
2019-03-26T01:07:33.849Z,0.00
2019-03-26T01:08:33.847Z,0.00
2019-03-26T01:09:33.837Z,0.00
2019-03-26T01:10:33.828Z,0.00
2019-03-26T01:11:33.825Z,0.00
2019-03-26T01:12:33.816Z,0.00
2019-03-26T01:13:33.810Z,0.00
2019-03-26T01:14:33.805Z,0.00
2019-03-26T01:15:33.797Z,0.00
2019-03-26T01:16:33.794Z,0.00
2019-03-26T01:17:33.784Z,0.00
2019-03-26T01:18:33.778Z,0.00
2019-03-26T01:19:33.771Z,0.00
2019-03-26T01:20:33.764Z,0.00
2019-03-26T01:21:33.756Z,0.00
2019-03-26T01:22:33.750Z,0.00
2019-03-26T01:23:33.742Z,0.00
2019-03-26T01:24:33.737Z,0.00
2019-03-26T01:25:33.735Z,0.00
2019-03-26T01:26:33.723Z,0.00
2019-03-26T01:27:33.713Z,0.00
2019-03-26T01:28:33.709Z,0.00
2019-03-26T01:29:33.706Z,0.00
2019-03-26T01:30:33.697Z,0.00
2019-03-26T01:31:33.687Z,0.00
2019-03-26T01:32:33.682Z,0.00
2019-03-26T01:33:33.675Z,0.00
2019-03-26T01:34:45.389Z,0.00
2019-03-26T01:36:01.386Z,0.00
2019-03-26T01:37:01.383Z,0.00
2019-03-26T01:38:01.371Z,0.00
2019-03-26T01:39:01.368Z,0.00
2019-03-26T01:40:01.359Z,0.00
2019-03-26T01:41:01.352Z,0.00
2019-03-26T01:42:01.410Z,0.00
2019-03-26T01:43:01.341Z,0.00
2019-03-26T01:44:01.337Z,0.00
2019-03-26T01:45:01.327Z,0.00
2019-03-26T01:46:01.322Z,0.00
2019-03-26T01:47:01.313Z,0.00
2019-03-26T01:48:01.305Z,0.00
2019-03-26T01:49:01.299Z,0.00
2019-03-26T01:50:01.295Z,0.00
2019-03-26T01:51:01.286Z,0.00
2019-03-26T01:52:01.281Z,0.00
2019-03-26T01:53:01.277Z,0.00
2019-03-26T01:54:01.270Z,0.00
2019-03-26T01:55:01.264Z,0.00
2019-03-26T01:56:01.258Z,0.00
2019-03-26T01:57:01.250Z,0.00
2019-03-26T01:58:01.244Z,0.00
2019-03-26T01:59:01.236Z,0.00
2019-03-26T02:00:01.249Z,0.00
2019-03-26T02:01:01.243Z,0.00
2019-03-26T02:02:01.233Z,0.00
2019-03-26T02:03:01.227Z,0.00
2019-03-26T02:04:01.220Z,0.00
2019-03-26T02:05:01.214Z,0.00
2019-03-26T02:06:01.219Z,0.00
2019-03-26T02:07:01.219Z,0.00
2019-03-26T02:08:01.221Z,0.00
2019-03-26T02:09:01.211Z,0.00
2019-03-26T02:10:01.203Z,0.00
2019-03-26T02:11:01.196Z,0.00
2019-03-26T02:12:01.193Z,0.00
2019-03-26T02:13:01.186Z,0.00
2019-03-26T02:14:01.178Z,0.00
2019-03-26T02:15:01.169Z,0.00
2019-03-26T02:16:01.161Z,0.00
2019-03-26T02:17:01.155Z,0.00
2019-03-26T02:18:01.169Z,0.00
2019-03-26T02:19:01.164Z,0.00
2019-03-26T02:20:01.154Z,0.00
2019-03-26T02:21:01.150Z,0.00
2019-03-26T02:22:01.144Z,0.00
2019-03-26T02:23:01.137Z,0.00
2019-03-26T02:24:01.137Z,0.00
2019-03-26T02:25:01.124Z,0.00
2019-03-26T02:26:01.115Z,0.00
2019-03-26T02:27:01.110Z,0.00
2019-03-26T02:28:01.110Z,0.00
2019-03-26T02:29:01.099Z,0.00
2019-03-26T02:30:01.109Z,0.00
2019-03-26T02:31:01.084Z,0.00
2019-03-26T02:32:01.079Z,0.00
2019-03-26T02:33:01.071Z,0.00
2019-03-26T02:34:01.068Z,0.00
2019-03-26T02:35:17.008Z,0.00
2019-03-26T02:36:28.775Z,0.00
2019-03-26T02:37:28.780Z,0.00
2019-03-26T02:38:28.771Z,0.00
2019-03-26T02:39:28.765Z,0.00
2019-03-26T02:40:28.762Z,0.00
2019-03-26T02:41:28.753Z,0.00
2019-03-26T02:42:28.748Z,0.00
2019-03-26T02:43:28.743Z,0.00
2019-03-26T02:44:28.737Z,0.00
2019-03-26T02:45:28.741Z,0.00
2019-03-26T02:46:28.726Z,0.00
2019-03-26T02:47:28.712Z,0.00
2019-03-26T02:48:28.722Z,0.00
2019-03-26T02:49:28.714Z,0.00
2019-03-26T02:50:28.709Z,0.00
2019-03-26T02:51:28.704Z,0.00
2019-03-26T02:52:28.698Z,0.00
2019-03-26T02:53:28.690Z,0.00
2019-03-26T02:54:28.683Z,0.00
2019-03-26T02:55:28.685Z,0.00
2019-03-26T02:56:28.672Z,0.00
2019-03-26T02:57:28.668Z,0.00
2019-03-26T02:58:28.659Z,0.00
2019-03-26T02:59:28.673Z,0.00
2019-03-26T03:00:28.650Z,0.00
2019-03-26T03:01:28.638Z,0.00
2019-03-26T03:02:28.636Z,0.00
2019-03-26T03:03:28.627Z,0.00
2019-03-26T03:04:28.621Z,0.00
2019-03-26T03:05:35.827Z,0.00
2019-03-26T03:06:56.331Z,0.00
2019-03-26T03:07:56.341Z,0.00
2019-03-26T03:08:56.327Z,0.00
2019-03-26T03:09:56.313Z,0.00
2019-03-26T03:10:56.308Z,0.00
2019-03-26T03:11:56.305Z,0.00
2019-03-26T03:12:56.297Z,0.00
2019-03-26T03:13:56.290Z,0.00
2019-03-26T03:14:56.282Z,0.00
2019-03-26T03:15:56.274Z,0.00
2019-03-26T03:16:56.270Z,0.00
2019-03-26T03:17:56.261Z,0.00
2019-03-26T03:18:56.257Z,0.00
2019-03-26T03:19:56.253Z,0.00
2019-03-26T03:20:56.243Z,0.00
2019-03-26T03:21:56.235Z,0.00
2019-03-26T03:22:56.231Z,0.00
2019-03-26T03:23:56.227Z,0.00
2019-03-26T03:24:56.232Z,0.00
2019-03-26T03:25:56.230Z,0.00
2019-03-26T03:26:56.235Z,0.00
2019-03-26T03:27:56.220Z,0.00
2019-03-26T03:28:56.208Z,0.00
2019-03-26T03:29:56.201Z,0.00
2019-03-26T03:30:56.210Z,0.00
2019-03-26T03:31:56.401Z,0.00
2019-03-26T03:32:56.182Z,0.00
2019-03-26T03:33:56.177Z,0.00
2019-03-26T03:34:56.185Z,0.00
2019-03-26T03:35:56.161Z,0.00
2019-03-26T03:36:56.159Z,0.00
2019-03-26T03:37:56.146Z,0.00
2019-03-26T03:38:56.142Z,0.00
2019-03-26T03:39:56.132Z,0.00
2019-03-26T03:40:56.127Z,0.00
2019-03-26T03:41:56.119Z,0.00
2019-03-26T03:42:56.117Z,0.00
2019-03-26T03:43:56.104Z,0.00
2019-03-26T03:44:56.097Z,0.00
2019-03-26T03:45:56.100Z,0.00
2019-03-26T03:46:56.091Z,0.00
2019-03-26T03:47:56.081Z,0.00
2019-03-26T03:48:56.077Z,0.00
2019-03-26T03:49:56.072Z,0.00
2019-03-26T03:50:56.063Z,0.00
2019-03-26T03:51:56.053Z,0.00
2019-03-26T03:52:56.065Z,0.00
2019-03-26T03:53:56.064Z,0.00
2019-03-26T03:54:56.053Z,0.00
2019-03-26T03:55:56.047Z,0.00
2019-03-26T03:56:56.049Z,0.00
2019-03-26T03:57:56.035Z,0.00
2019-03-26T03:58:56.034Z,0.00
2019-03-26T03:59:56.021Z,0.00
2019-03-26T04:00:56.012Z,0.00
2019-03-26T04:01:56.005Z,0.00
2019-03-26T04:02:56.005Z,0.00
2019-03-26T04:03:55.991Z,0.00
2019-03-26T04:04:55.985Z,0.00
2019-03-26T04:06:08.237Z,0.00
2019-03-26T04:06:57.970Z,0.00
2019-03-26T04:07:55.965Z,0.00
2019-03-26T04:08:55.971Z,0.00
2019-03-26T04:09:56.021Z,0.00
2019-03-26T04:10:55.942Z,0.00
2019-03-26T04:11:55.934Z,0.00
2019-03-26T04:12:55.929Z,0.00
2019-03-26T04:13:55.933Z,0.00
2019-03-26T04:14:55.921Z,0.00
2019-03-26T04:15:55.923Z,0.00
2019-03-26T04:16:55.911Z,0.00
2019-03-26T04:17:55.985Z,0.00
2019-03-26T04:18:55.903Z,0.00
2019-03-26T04:19:55.963Z,0.00
2019-03-26T04:20:55.890Z,0.00
2019-03-26T04:21:55.954Z,0.00
2019-03-26T04:22:55.881Z,0.00
2019-03-26T04:23:55.873Z,0.00
2019-03-26T04:24:55.883Z,0.00
2019-03-26T04:25:55.863Z,0.00
2019-03-26T04:26:55.857Z,0.00
2019-03-26T04:27:55.863Z,0.00
2019-03-26T04:28:55.844Z,0.00
2019-03-26T04:29:55.837Z,0.00
2019-03-26T04:30:55.831Z,0.00
2019-03-26T04:31:55.829Z,0.00
2019-03-26T04:32:55.818Z,0.00
2019-03-26T04:33:55.811Z,0.00
2019-03-26T04:34:55.801Z,0.00
2019-03-26T04:35:55.798Z,0.00
2019-03-26T04:36:55.915Z,0.00
2019-03-26T04:37:55.784Z,0.00
2019-03-26T04:38:55.777Z,0.00
2019-03-26T04:39:55.784Z,0.00
2019-03-26T04:40:55.780Z,0.00
2019-03-26T04:41:55.764Z,0.00
2019-03-26T04:42:55.752Z,0.00
2019-03-26T04:43:55.747Z,0.00
2019-03-26T04:44:55.737Z,0.00
2019-03-26T04:45:55.731Z,0.00
2019-03-26T04:46:55.726Z,0.00
2019-03-26T04:47:55.716Z,0.00
2019-03-26T04:48:55.710Z,0.00
2019-03-26T04:49:55.705Z,0.00
2019-03-26T04:50:55.700Z,0.00
2019-03-26T04:51:55.689Z,0.00
2019-03-26T04:52:55.685Z,0.00
2019-03-26T04:53:55.675Z,0.00
2019-03-26T04:54:55.668Z,0.00
2019-03-26T04:55:55.661Z,0.00
2019-03-26T04:56:55.655Z,0.00
2019-03-26T04:57:55.647Z,0.00
2019-03-26T04:58:55.640Z,0.00
2019-03-26T04:59:55.634Z,0.00
2019-03-26T05:00:55.630Z,0.00
2019-03-26T05:01:55.622Z,0.00
2019-03-26T05:02:55.615Z,0.00
2019-03-26T05:03:55.610Z,0.00
2019-03-26T05:04:55.620Z,0.00
2019-03-26T05:05:55.617Z,0.00
2019-03-26T05:06:55.613Z,0.00
2019-03-26T05:07:55.602Z,0.00
2019-03-26T05:08:55.595Z,0.00
2019-03-26T05:09:55.589Z,0.00
2019-03-26T05:10:55.586Z,0.00
2019-03-26T05:11:55.580Z,0.00
2019-03-26T05:12:55.576Z,0.00
2019-03-26T05:13:55.566Z,0.00
2019-03-26T05:14:55.558Z,0.00
2019-03-26T05:15:55.552Z,0.00
2019-03-26T05:16:55.545Z,0.00
2019-03-26T05:17:56.862Z,0.00
2019-03-26T05:18:55.528Z,0.00
2019-03-26T05:19:55.526Z,0.00
2019-03-26T05:20:55.515Z,0.00
2019-03-26T05:21:55.509Z,0.00
2019-03-26T05:22:55.508Z,0.00
2019-03-26T05:23:55.498Z,0.00
2019-03-26T05:24:55.490Z,0.00
2019-03-26T05:25:55.484Z,0.00
2019-03-26T05:26:55.475Z,0.00
2019-03-26T05:27:55.469Z,0.00
2019-03-26T05:28:55.461Z,0.00
2019-03-26T05:29:55.451Z,0.00
2019-03-26T05:30:55.448Z,0.00
2019-03-26T05:31:55.441Z,0.00
2019-03-26T05:32:55.434Z,0.00
2019-03-26T05:33:55.429Z,5.62
2019-03-26T05:34:55.425Z,5.62
2019-03-26T05:35:55.416Z,5.62
2019-03-26T05:36:55.414Z,5.62
2019-03-26T05:37:55.405Z,5.62
2019-03-26T05:38:55.396Z,5.62
2019-03-26T05:39:55.391Z,5.62
2019-03-26T05:40:55.387Z,5.62
2019-03-26T05:41:55.378Z,5.62
2019-03-26T05:42:55.374Z,5.62
2019-03-26T05:43:55.367Z,5.62
2019-03-26T05:44:55.358Z,5.62
2019-03-26T05:45:55.355Z,5.62
2019-03-26T05:46:55.347Z,5.62
2019-03-26T05:47:55.338Z,5.62
2019-03-26T05:48:55.334Z,5.62
2019-03-26T05:49:55.325Z,11.25
2019-03-26T05:50:55.316Z,11.25
2019-03-26T05:51:55.309Z,16.87
2019-03-26T05:52:55.301Z,22.50
2019-03-26T05:53:55.295Z,22.50
2019-03-26T05:54:55.291Z,22.50
2019-03-26T05:55:55.282Z,22.50
2019-03-26T05:56:55.274Z,22.50
2019-03-26T05:57:55.270Z,22.50
2019-03-26T05:58:55.261Z,22.50
2019-03-26T05:59:55.255Z,28.12
2019-03-26T06:00:55.249Z,28.12
2019-03-26T06:01:55.241Z,28.12
2019-03-26T06:02:55.239Z,33.75
2019-03-26T06:03:55.229Z,33.75
2019-03-26T06:04:55.223Z,39.37
2019-03-26T06:05:55.292Z,39.37
2019-03-26T06:07:04.614Z,45.00
2019-03-26T06:08:22.983Z,50.62
2019-03-26T06:09:22.977Z,50.62
2019-03-26T06:10:22.973Z,56.25
2019-03-26T06:11:22.965Z,56.25
2019-03-26T06:12:22.967Z,56.25
2019-03-26T06:13:22.961Z,61.87
2019-03-26T06:14:23.009Z,61.87
2019-03-26T06:15:22.979Z,61.87
2019-03-26T06:16:22.973Z,61.87
2019-03-26T06:17:22.962Z,61.87
2019-03-26T06:18:22.955Z,61.87
2019-03-26T06:19:22.950Z,61.87
2019-03-26T06:20:22.942Z,61.87
2019-03-26T06:21:22.946Z,67.50
2019-03-26T06:22:22.953Z,67.50
2019-03-26T06:23:22.926Z,67.50
2019-03-26T06:24:22.918Z,67.50
2019-03-26T06:25:22.917Z,67.50
2019-03-26T06:26:22.908Z,67.50
2019-03-26T06:27:22.903Z,67.50
2019-03-26T06:28:22.893Z,67.50
2019-03-26T06:29:22.885Z,67.50
2019-03-26T06:30:22.879Z,67.50
2019-03-26T06:31:22.874Z,78.75
2019-03-26T06:32:22.865Z,73.12
2019-03-26T06:33:22.858Z,67.50
2019-03-26T06:34:22.855Z,39.37
2019-03-26T06:35:22.844Z,33.75
2019-03-26T06:36:22.838Z,33.75
2019-03-26T06:37:22.834Z,33.75
2019-03-26T06:38:22.826Z,28.12
2019-03-26T06:39:22.821Z,28.12
2019-03-26T06:40:22.864Z,22.50
2019-03-26T06:41:22.812Z,28.12
2019-03-26T06:42:22.802Z,28.12
2019-03-26T06:43:22.796Z,28.12
2019-03-26T06:44:22.796Z,33.75
2019-03-26T06:45:22.784Z,33.75
2019-03-26T06:46:22.774Z,33.75
2019-03-26T06:47:22.774Z,39.37
2019-03-26T06:48:22.766Z,39.37
2019-03-26T06:49:22.760Z,39.37
2019-03-26T06:50:22.754Z,39.37
2019-03-26T06:51:22.748Z,39.37
2019-03-26T06:52:22.743Z,39.37
2019-03-26T06:53:22.737Z,39.37
2019-03-26T06:54:22.728Z,45.00
2019-03-26T06:55:22.727Z,45.00
2019-03-26T06:56:22.716Z,45.00
2019-03-26T06:57:34.998Z,45.00
2019-03-26T06:58:50.433Z,45.00
2019-03-26T06:59:50.429Z,45.00
2019-03-26T07:00:50.453Z,45.00
2019-03-26T07:01:50.440Z,50.62
2019-03-26T07:02:50.431Z,50.62
2019-03-26T07:03:50.426Z,56.25
2019-03-26T07:04:50.418Z,67.50
2019-03-26T07:05:50.416Z,61.87
2019-03-26T07:06:50.410Z,73.12
2019-03-26T07:07:50.424Z,78.75
2019-03-26T07:08:50.420Z,84.37
2019-03-26T07:09:50.409Z,95.62
2019-03-26T07:10:50.414Z,112.50
2019-03-26T07:11:50.396Z,95.62
2019-03-26T07:12:50.387Z,78.75
2019-03-26T07:13:50.382Z,78.75
2019-03-26T07:14:50.376Z,73.12
2019-03-26T07:15:50.371Z,67.50
2019-03-26T07:16:50.364Z,67.50
2019-03-26T07:17:52.463Z,67.50
2019-03-26T07:18:50.349Z,67.50
2019-03-26T07:19:50.343Z,67.50
2019-03-26T07:20:50.333Z,67.50
2019-03-26T07:21:50.328Z,61.87
2019-03-26T07:22:50.322Z,56.25
2019-03-26T07:23:50.316Z,50.62
2019-03-26T07:24:50.308Z,45.00
2019-03-26T07:25:50.304Z,50.62
2019-03-26T07:26:50.303Z,56.25
2019-03-26T07:27:50.292Z,61.87
2019-03-26T07:28:50.369Z,61.87
2019-03-26T07:29:50.283Z,61.87
2019-03-26T07:30:50.275Z,61.87
2019-03-26T07:31:50.271Z,67.50
2019-03-26T07:32:50.262Z,67.50
2019-03-26T07:33:50.276Z,67.50
2019-03-26T07:34:50.248Z,67.50
2019-03-26T07:35:50.243Z,67.50
2019-03-26T07:36:50.233Z,67.50
2019-03-26T07:37:50.228Z,61.87
2019-03-26T07:38:50.222Z,56.25
2019-03-26T07:39:50.217Z,50.62
2019-03-26T07:40:50.214Z,50.62
2019-03-26T07:41:50.205Z,50.62
2019-03-26T07:42:50.200Z,56.25
2019-03-26T07:43:50.271Z,61.87
2019-03-26T07:44:50.186Z,67.50
2019-03-26T07:45:50.178Z,73.12
2019-03-26T07:46:50.186Z,84.37
2019-03-26T07:47:50.168Z,90.00
2019-03-26T07:48:50.159Z,95.62
2019-03-26T07:49:50.151Z,95.62
2019-03-26T07:50:50.162Z,101.25
2019-03-26T07:51:50.156Z,101.25
2019-03-26T07:52:50.148Z,106.87
2019-03-26T07:53:50.143Z,106.87
2019-03-26T07:54:50.142Z,123.75
2019-03-26T07:55:50.129Z,112.50
2019-03-26T07:56:50.121Z,106.87
2019-03-26T07:57:50.117Z,106.87
2019-03-26T07:58:50.108Z,123.75
2019-03-26T07:59:50.103Z,118.12
2019-03-26T08:00:50.096Z,123.75
2019-03-26T08:01:50.090Z,185.62
2019-03-26T08:02:50.082Z,129.37
2019-03-26T08:03:50.076Z,225.00
2019-03-26T08:04:50.069Z,258.75
2019-03-26T08:05:50.213Z,270.00
2019-03-26T08:06:50.060Z,326.25
2019-03-26T08:07:58.326Z,348.75
2019-03-26T08:09:17.822Z,371.25
2019-03-26T08:10:17.776Z,393.75
2019-03-26T08:11:17.766Z,416.25
2019-03-26T08:12:17.776Z,376.87
2019-03-26T08:13:17.783Z,230.62
2019-03-26T08:14:17.813Z,303.75
2019-03-26T08:15:20.185Z,427.50
2019-03-26T08:16:17.805Z,450.00
2019-03-26T08:17:17.831Z,461.25
2019-03-26T08:18:17.824Z,472.50
2019-03-26T08:19:17.815Z,478.12
2019-03-26T08:20:17.809Z,489.37
2019-03-26T08:21:17.854Z,500.62
2019-03-26T08:22:17.822Z,506.25
2019-03-26T08:23:17.814Z,506.25
2019-03-26T08:24:17.810Z,511.87
2019-03-26T08:25:17.806Z,523.12
2019-03-26T08:26:17.797Z,523.12
2019-03-26T08:27:17.787Z,523.12
2019-03-26T08:28:17.781Z,523.12
2019-03-26T08:29:17.773Z,523.12
2019-03-26T08:30:17.766Z,528.75
2019-03-26T08:31:17.769Z,534.37
2019-03-26T08:32:17.754Z,545.62
2019-03-26T08:33:17.748Z,551.25
2019-03-26T08:34:17.739Z,562.50
2019-03-26T08:35:17.733Z,556.87
2019-03-26T08:36:17.723Z,551.25
2019-03-26T08:37:17.768Z,568.12
2019-03-26T08:38:17.710Z,568.12
2019-03-26T08:39:17.707Z,573.75
2019-03-26T08:40:17.700Z,573.75
2019-03-26T08:41:17.690Z,585.00
2019-03-26T08:42:17.684Z,601.87
2019-03-26T08:43:17.680Z,607.50
2019-03-26T08:44:17.674Z,630.00
2019-03-26T08:45:17.665Z,635.62
2019-03-26T08:46:17.659Z,630.00
2019-03-26T08:47:17.654Z,635.62
2019-03-26T08:48:17.649Z,641.25
2019-03-26T08:49:17.640Z,641.25
2019-03-26T08:50:17.636Z,646.87
2019-03-26T08:51:17.632Z,652.50
2019-03-26T08:52:17.625Z,669.37
2019-03-26T08:53:17.669Z,641.25
2019-03-26T08:54:17.613Z,298.12
2019-03-26T08:55:17.608Z,320.62
2019-03-26T08:56:17.604Z,393.75
2019-03-26T08:57:17.595Z,331.87
2019-03-26T08:58:17.589Z,247.50
2019-03-26T08:59:17.586Z,298.12
2019-03-26T09:00:17.579Z,376.87
2019-03-26T09:01:17.573Z,416.25
2019-03-26T09:02:17.565Z,376.87
2019-03-26T09:03:17.558Z,343.12
2019-03-26T09:04:17.552Z,292.50
2019-03-26T09:05:17.545Z,270.00
2019-03-26T09:06:17.537Z,258.75
2019-03-26T09:07:17.554Z,258.75
2019-03-26T09:08:25.343Z,270.00
2019-03-26T09:09:45.270Z,286.87
2019-03-26T09:10:51.687Z,275.62
2019-03-26T09:11:47.261Z,286.87
2019-03-26T09:12:45.253Z,157.50
2019-03-26T09:13:45.249Z,106.87
2019-03-26T09:14:45.240Z,78.75
2019-03-26T09:15:45.232Z,56.25
2019-03-26T09:16:45.228Z,39.37
2019-03-26T09:17:45.222Z,28.12
2019-03-26T09:18:45.214Z,16.87
2019-03-26T09:19:45.207Z,11.25
2019-03-26T09:20:45.203Z,11.25
2019-03-26T09:21:45.199Z,11.25
2019-03-26T09:22:45.189Z,11.25
2019-03-26T09:23:45.184Z,11.25
2019-03-26T09:24:45.181Z,11.25
2019-03-26T09:25:45.172Z,11.25
2019-03-26T09:26:45.165Z,11.25
2019-03-26T09:27:45.158Z,11.25
2019-03-26T09:28:47.719Z,16.87
2019-03-26T09:29:45.148Z,16.87
2019-03-26T09:30:45.144Z,16.87
2019-03-26T09:31:45.133Z,16.87
2019-03-26T09:32:45.126Z,22.50
2019-03-26T09:33:45.119Z,22.50
2019-03-26T09:34:45.113Z,22.50
2019-03-26T09:35:45.107Z,28.12
2019-03-26T09:36:45.103Z,28.12
2019-03-26T09:37:45.097Z,28.12
2019-03-26T09:38:45.090Z,28.12
2019-03-26T09:39:45.083Z,28.12
2019-03-26T09:40:45.077Z,33.75
2019-03-26T09:41:45.073Z,33.75
2019-03-26T09:42:45.067Z,33.75
2019-03-26T09:43:45.060Z,33.75
2019-03-26T09:44:45.078Z,33.75
2019-03-26T09:45:45.073Z,39.37
2019-03-26T09:46:45.115Z,45.00
2019-03-26T09:47:45.064Z,50.62
2019-03-26T09:48:45.052Z,50.62
2019-03-26T09:49:45.045Z,56.25
2019-03-26T09:50:45.053Z,56.25
2019-03-26T09:51:45.035Z,61.87
2019-03-26T09:52:45.027Z,67.50
2019-03-26T09:53:45.021Z,67.50
2019-03-26T09:54:45.018Z,67.50
2019-03-26T09:55:45.008Z,78.75
2019-03-26T09:56:45.000Z,90.00
2019-03-26T09:57:44.993Z,112.50
2019-03-26T09:58:44.987Z,129.37
2019-03-26T09:59:44.983Z,84.37
2019-03-26T10:00:45.159Z,73.12
2019-03-26T10:01:44.990Z,67.50
2019-03-26T10:02:44.980Z,61.87
2019-03-26T10:03:44.975Z,56.25
2019-03-26T10:04:44.969Z,56.25
2019-03-26T10:05:44.961Z,56.25
2019-03-26T10:06:44.953Z,56.25
2019-03-26T10:07:44.946Z,56.25
2019-03-26T10:08:52.276Z,56.25
